Maersk Phuket — 9V3819 — position and weather

sailwx.info

Track history (hours):
 
Tides and Currents Weather Stations Pressure Air Temp Water Temp Dewpoint Dewpoint Depression Visibility Wind Speed Wind Dir Waves Ship Positions

Maersk Phuket

Last reported at 2018-Feb-01 17:42 UTC. Time now 2018-Feb-22 22:54 UTC.
Position N 07°08' W 014°04'.
Warning: this ship's position is 21 days out of date.

Length 210 m; draft 11.7 m.

Type: Ship (hazmat cat A). MMSI: 565249000.

Date/timePositionNaut miles runAvg speedWind from/ knotsBaromVisibWave heightAir tempDewpointWater temp
2018-Feb-01 17:42N 07°08' W 014°04'314.0
2018-Feb-01 17:31N 07°10' W 014°06'3814.1
2018-Feb-01 14:47N 07°37' W 014°34'1914.9
2018-Feb-01 13:30N 07°50' W 014°47'914.9
2018-Feb-01 12:54N 07°56' W 014°54'614.8
2018-Feb-01 12:29N 08°01' W 014°58'714.7
2018-Feb-01 12:00N 08°06' W 015°03'1515.0
2018-Feb-01 11:00N 08°17' W 015°14'714.6
2018-Feb-01 10:31N 08°22' W 015°19'714.6
2018-Feb-01 10:01N 08°27' W 015°24'714.5
2018-Feb-01 09:30N 08°32' W 015°29'714.7
2018-Feb-01 09:00N 08°37' W 015°34'714.7
2018-Feb-01 08:30N 08°43' W 015°40'1514.6
2018-Feb-01 07:30N 08°53' W 015°50'714.3
2018-Feb-01 07:00N 08°58' W 015°55'714.5
2018-Feb-01 06:30N 09°03' W 016°00'814.4
2018-Feb-01 05:59N 09°08' W 016°06'714.3
2018-Feb-01 05:30N 09°13' W 016°11'814.2
2018-Feb-01 04:57N 09°19' W 016°16'714.0
2018-Feb-01 04:27N 09°24' W 016°21'714.5
2018-Feb-01 04:00N 09°28' W 016°26'1414.2
2018-Feb-01 03:01N 09°38' W 016°36'1114.5
2018-Feb-01 02:15N 09°46' W 016°44'414.3
2018-Feb-01 02:00N 09°48' W 016°46'714.2
2018-Feb-01 01:30N 09°54' W 016°51'714.5
2018-Feb-01 01:00N 09°59' W 016°56'714.6
2018-Feb-01 00:30N 10°05' W 017°01'  
2018-Jan-26 06:19N 36°09' W 005°26'0 0.0
2018-Jan-26 05:58N 36°09' W 005°26'0 0.0
2018-Jan-26 04:13N 36°09' W 005°26'0 0.0
2018-Jan-26 03:55N 36°09' W 005°26'0 0.0
2018-Jan-26 03:28N 36°09' W 005°26'6 0.6
2018-Jan-25 17:35N 36°05' W 005°20'3 8.6
2018-Jan-25 17:14N 36°05' W 005°16'1 3.6
2018-Jan-25 16:56N 36°05' W 005°15'3 5.4
2018-Jan-25 16:28N 36°03' W 005°18'4 8.4
2018-Jan-25 16:00N 36°05' W 005°13'180 4.3
2018-Jan-23 22:11N 36°29' W 008°54'210.6
2018-Jan-23 22:00N 36°29' W 008°57'89 9.6
2018-Jan-23 12:44N 37°54' W 009°32'311.5
2018-Jan-23 12:30N 37°56' W 009°32'611.2
2018-Jan-23 12:00N 38°02' W 009°31'611.1
2018-Jan-23 11:30N 38°07' W 009°31'611.1
2018-Jan-23 11:00N 38°13' W 009°30'611.6
2018-Jan-23 10:30N 38°19' W 009°30'611.4
2018-Jan-23 10:00N 38°24' W 009°29'611.3
2018-Jan-23 09:30N 38°30' W 009°27'510.9
2018-Jan-23 09:00N 38°35' W 009°24'510.5
2018-Jan-23 08:30N 38°39' W 009°20'713.8
2018-Jan-23 08:00N 38°41' W 009°12'1 1.1
2018-Jan-23 06:43N 38°42' W 009°10'0 0.0
2018-Jan-23 06:28N 38°42' W 009°10'0 0.0
2018-Jan-23 05:49N 38°42' W 009°10'0 0.0
2018-Jan-23 05:31N 38°42' W 009°10'0 0.0
2018-Jan-23 04:52N 38°42' W 009°10'0 0.0
2018-Jan-23 04:25N 38°42' W 009°10'0 0.0
2018-Jan-23 03:58N 38°42' W 009°10'0 0.0
2018-Jan-23 03:19N 38°42' W 009°10'0 0.0
2018-Jan-23 02:54N 38°42' W 009°10'0 0.0
2018-Jan-23 02:28N 38°42' W 009°10'0 0.0
2018-Jan-23 01:58N 38°42' W 009°10'0 0.0
2018-Jan-23 00:25N 38°42' W 009°10'0 0.0
2018-Jan-22 23:27N 38°42' W 009°10'0 0.0
2018-Jan-22 22:54N 38°42' W 009°10'0 0.0
2018-Jan-22 22:25N 38°42' W 009°10'0 0.0
2018-Jan-22 20:58N 38°42' W 009°10'0 0.0
2018-Jan-22 20:24N 38°42' W 009°10'0 0.0
2018-Jan-22 19:49N 38°42' W 009°10'0 0.0
2018-Jan-22 19:07N 38°42' W 009°10'0 0.0
2018-Jan-22 18:48N 38°42' W 009°10'0 0.0
2018-Jan-22 18:24N 38°42' W 009°10'0 0.0
2018-Jan-22 18:01N 38°42' W 009°10'  
Track history (hours):
 
Tides and Currents Weather Stations Pressure Air Temp Water Temp Dewpoint Dewpoint Depression Visibility Wind Speed Wind Dir Waves Ship Positions

Maersk Phuket

Last reported at 2018-Feb-01 17:42 UTC. Time now 2018-Feb-22 22:54 UTC.
Position N 07°08' W 014°04'.
Warning: this ship's position is 21 days out of date.

Length 210 m; draft 11.7 m.

Type: Ship (hazmat cat A). MMSI: 565249000.

Date/timePositionNaut miles runAvg speedWind from/ knotsBaromVisibWave heightAir tempDewpointWater temp
2018-Feb-01 17:42N 07°08' W 014°04'314.0
2018-Feb-01 17:31N 07°10' W 014°06'3814.1
2018-Feb-01 14:47N 07°37' W 014°34'1914.9
2018-Feb-01 13:30N 07°50' W 014°47'914.9
2018-Feb-01 12:54N 07°56' W 014°54'614.8
2018-Feb-01 12:29N 08°01' W 014°58'714.7
2018-Feb-01 12:00N 08°06' W 015°03'1515.0
2018-Feb-01 11:00N 08°17' W 015°14'714.6
2018-Feb-01 10:31N 08°22' W 015°19'714.6
2018-Feb-01 10:01N 08°27' W 015°24'714.5
2018-Feb-01 09:30N 08°32' W 015°29'714.7
2018-Feb-01 09:00N 08°37' W 015°34'714.7
2018-Feb-01 08:30N 08°43' W 015°40'1514.6
2018-Feb-01 07:30N 08°53' W 015°50'714.3
2018-Feb-01 07:00N 08°58' W 015°55'714.5
2018-Feb-01 06:30N 09°03' W 016°00'814.4
2018-Feb-01 05:59N 09°08' W 016°06'714.3
2018-Feb-01 05:30N 09°13' W 016°11'814.2
2018-Feb-01 04:57N 09°19' W 016°16'714.0
2018-Feb-01 04:27N 09°24' W 016°21'714.5
2018-Feb-01 04:00N 09°28' W 016°26'1414.2
2018-Feb-01 03:01N 09°38' W 016°36'1114.5
2018-Feb-01 02:15N 09°46' W 016°44'414.3
2018-Feb-01 02:00N 09°48' W 016°46'714.2
2018-Feb-01 01:30N 09°54' W 016°51'714.5
2018-Feb-01 01:00N 09°59' W 016°56'714.6
2018-Feb-01 00:30N 10°05' W 017°01'  
2018-Jan-26 06:19N 36°09' W 005°26'0 0.0
2018-Jan-26 05:58N 36°09' W 005°26'0 0.0
2018-Jan-26 04:13N 36°09' W 005°26'0 0.0
2018-Jan-26 03:55N 36°09' W 005°26'0 0.0
2018-Jan-26 03:28N 36°09' W 005°26'6 0.6
2018-Jan-25 17:35N 36°05' W 005°20'3 8.6
2018-Jan-25 17:14N 36°05' W 005°16'1 3.6
2018-Jan-25 16:56N 36°05' W 005°15'3 5.4
2018-Jan-25 16:28N 36°03' W 005°18'4 8.4
2018-Jan-25 16:00N 36°05' W 005°13'180 4.3
2018-Jan-23 22:11N 36°29' W 008°54'210.6
2018-Jan-23 22:00N 36°29' W 008°57'89 9.6
2018-Jan-23 12:44N 37°54' W 009°32'311.5
2018-Jan-23 12:30N 37°56' W 009°32'611.2
2018-Jan-23 12:00N 38°02' W 009°31'611.1
2018-Jan-23 11:30N 38°07' W 009°31'611.1
2018-Jan-23 11:00N 38°13' W 009°30'611.6
2018-Jan-23 10:30N 38°19' W 009°30'611.4
2018-Jan-23 10:00N 38°24' W 009°29'611.3
2018-Jan-23 09:30N 38°30' W 009°27'510.9
2018-Jan-23 09:00N 38°35' W 009°24'510.5
2018-Jan-23 08:30N 38°39' W 009°20'713.8
2018-Jan-23 08:00N 38°41' W 009°12'1 1.1
2018-Jan-23 06:43N 38°42' W 009°10'0 0.0
2018-Jan-23 06:28N 38°42' W 009°10'0 0.0
2018-Jan-23 05:49N 38°42' W 009°10'0 0.0
2018-Jan-23 05:31N 38°42' W 009°10'0 0.0
2018-Jan-23 04:52N 38°42' W 009°10'0 0.0
2018-Jan-23 04:25N 38°42' W 009°10'0 0.0
2018-Jan-23 03:58N 38°42' W 009°10'0 0.0
2018-Jan-23 03:19N 38°42' W 009°10'0 0.0
2018-Jan-23 02:54N 38°42' W 009°10'0 0.0
2018-Jan-23 02:28N 38°42' W 009°10'0 0.0
2018-Jan-23 01:58N 38°42' W 009°10'0 0.0
2018-Jan-23 00:25N 38°42' W 009°10'0 0.0
2018-Jan-22 23:27N 38°42' W 009°10'0 0.0
2018-Jan-22 22:54N 38°42' W 009°10'0 0.0
2018-Jan-22 22:25N 38°42' W 009°10'0 0.0
2018-Jan-22 20:58N 38°42' W 009°10'0 0.0
2018-Jan-22 20:24N 38°42' W 009°10'0 0.0
2018-Jan-22 19:49N 38°42' W 009°10'0 0.0
2018-Jan-22 19:07N 38°42' W 009°10'0 0.0
2018-Jan-22 18:48N 38°42' W 009°10'0 0.0
2018-Jan-22 18:24N 38°42' W 009°10'0 0.0
2018-Jan-22 18:01N 38°42' W 009°10'  

Dump ship's entire track history